Mapleton, North Dakota
Current Conditions -  °F | °C
As of 12:53 AM on Wednesday 22 Oct 2014 (Local Time) from KFAR Reporting Station
Clear Clear  
Wind Chill: 56°   Ceiling: Unl
Heat Index: 56°   Visibility: 10mi
Dew Point: 41°   Wind: 22mph
Humidity: 57%   Direction: 150°SSE
Pressure: 29.9"   Gusts: 33mph
Location:  46.89°N, 97.05°W
Report Text: KFAR 220553Z 15019G29KT 10SM CLR 13/05 A2990 RMK AO2 PK WND 15030/0522 SLP125 T01330050 10161 20133 401940061 58005
Loading
Personal Weather Stations






























Interactive Weather Map
Tropical Storm Tracking
New forecast layout! Learn more

10-Day Weather Forecast

Advertisements
Track Severe Weather on mobile